Time;durP1;ratioP1;P1;durP2;ratioP2;P2;SDS_P1;SDS_P2;PMS_P1;PMS_P2;Temp;Humidity;BMP_temperature;BMP_pressure;BME280_temperature;BME280_humidity;BME280_pressure;Samples;Min_cycle;Max_cycle;Signal;HPM_P1;HPM_P2
2021/08/24 00:01:37;;;;;;;924.90;826.47;;;;;;;;;;5040211;28;20033;-78
2021/08/24 00:04:03;;;;;;;929.58;830.83;;;;;;;;;;5027696;28;20317;-78
2021/08/24 00:06:29;;;;;;;934.70;836.05;;;;;;;;;;5028019;28;20029;-77
2021/08/24 00:08:55;;;;;;;928.53;830.10;;;;;;;;;;5041013;28;20458;-76
2021/08/24 00:11:21;;;;;;;924.15;825.65;;;;;;;;;;5038141;28;20021;-76
2021/08/24 00:13:47;;;;;;;925.13;826.55;;;;;;;;;;5043233;28;20028;-77
2021/08/24 00:16:17;;;;;;;919.90;821.33;;;;;;;;;;5025546;28;20040;-77
2021/08/24 00:18:43;;;;;;;919.10;820.53;;;;;;;;;;5042613;28;20104;-76
2021/08/24 00:21:09;;;;;;;920.35;821.45;;;;;;;;;;5035947;28;20140;-77
2021/08/24 00:23:35;;;;;;;917.15;818.47;;;;;;;;;;5018453;28;20041;-77
2021/08/24 00:26:02;;;;;;;918.50;819.50;;;;;;;;;;5049338;28;20081;-77
2021/08/24 00:28:28;;;;;;;916.67;817.80;;;;;;;;;;5048170;28;20459;-76
2021/08/24 00:30:54;;;;;;;921.38;822.15;;;;;;;;;;5033255;28;20080;-77
2021/08/24 00:33:21;;;;;;;913.38;814.70;;;;;;;;;;5037148;28;20040;-75
2021/08/24 00:35:48;;;;;;;909.05;810.22;;;;;;;;;;5038391;28;20135;-77
2021/08/24 00:38:15;;;;;;;909.05;810.50;;;;;;;;;;5037852;28;20064;-77
2021/08/24 00:40:42;;;;;;;908.90;810.10;;;;;;;;;;5037735;28;20138;-77
2021/08/24 00:43:10;;;;;;;901.75;803.33;;;;;;;;;;5036371;28;20439;-77
2021/08/24 00:45:37;;;;;;;899.97;801.33;;;;;;;;;;5042846;28;20073;-77
2021/08/24 00:48:05;;;;;;;894.47;796.80;;;;;;;;;;5038702;28;20132;-77
2021/08/24 00:50:36;;;;;;;897.95;799.92;;;;;;;;;;5037236;28;20484;-78
2021/08/24 00:53:03;;;;;;;898.58;800.58;;;;;;;;;;5043733;28;20036;-77
2021/08/24 00:55:29;;;;;;;905.72;807.38;;;;;;;;;;5043419;28;20043;-77
2021/08/24 00:57:56;;;;;;;895.22;797.28;;;;;;;;;;5036625;28;20025;-77
2021/08/24 01:00:22;;;;;;;902.42;804.13;;;;;;;;;;5038330;28;20029;-77
2021/08/24 01:02:48;;;;;;;900.88;802.63;;;;;;;;;;5038059;28;20289;-77
2021/08/24 01:05:14;;;;;;;895.55;797.30;;;;;;;;;;5037178;28;20380;-77
2021/08/24 01:07:51;;;;;;;896.78;798.75;;;;;;;;;;5043468;28;20029;-79
2021/08/24 01:10:35;;;;;;;891.97;794.03;;;;;;;;;;5037458;28;20033;-77
2021/08/24 01:13:07;;;;;;;883.45;785.70;;;;;;;;;;5032930;28;20148;-77
2021/08/24 01:15:36;;;;;;;888.95;790.38;;;;;;;;;;5039871;28;20033;-77
2021/08/24 01:18:13;;;;;;;884.97;786.97;;;;;;;;;;5026825;28;20021;-77
2021/08/24 01:20:55;;;;;;;889.85;790.92;;;;;;;;;;5034544;28;20124;-77
2021/08/24 01:23:21;;;;;;;885.20;786.88;;;;;;;;;;5038611;28;20048;-77
2021/08/24 01:25:54;;;;;;;887.70;789.78;;;;;;;;;;5024449;28;20041;-77
2021/08/24 01:28:31;;;;;;;883.67;783.35;;;;;;;;;;5039183;28;20333;-77
2021/08/24 01:31:14;;;;;;;883.88;785.17;;;;;;;;;;5041124;28;20029;-76
2021/08/24 01:33:49;;;;;;;885.50;782.05;;;;;;;;;;5035909;28;20048;-77
2021/08/24 01:36:15;;;;;;;883.22;780.00;;;;;;;;;;5035003;28;20120;-77
2021/08/24 01:38:45;;;;;;;884.20;785.45;;;;;;;;;;5018675;28;20116;-77
2021/08/24 01:41:27;;;;;;;882.45;774.53;;;;;;;;;;5037988;28;20490;-77
2021/08/24 01:43:59;;;;;;;880.83;780.80;;;;;;;;;;5029668;28;20049;-77
2021/08/24 01:46:38;;;;;;;881.40;777.08;;;;;;;;;;5035758;28;20430;-77
2021/08/24 01:49:05;;;;;;;875.83;770.45;;;;;;;;;;5024698;28;20714;-78
2021/08/24 01:51:34;;;;;;;881.75;782.22;;;;;;;;;;5043525;28;20082;-76
2021/08/24 01:54:02;;;;;;;879.83;776.00;;;;;;;;;;5034018;28;20017;-76
2021/08/24 01:56:30;;;;;;;878.95;772.58;;;;;;;;;;5033412;28;20025;-77
2021/08/24 01:59:00;;;;;;;878.35;768.10;;;;;;;;;;5027143;28;20460;-76
2021/08/24 02:01:31;;;;;;;879.97;773.25;;;;;;;;;;5031127;28;20029;-77
2021/08/24 02:03:59;;;;;;;874.45;763.65;;;;;;;;;;5030982;28;20478;-77
2021/08/24 02:06:28;;;;;;;876.05;775.53;;;;;;;;;;5043568;28;20025;-77
2021/08/24 02:08:56;;;;;;;880.72;774.30;;;;;;;;;;5066744;28;20032;-77
2021/08/24 02:11:23;;;;;;;877.38;772.65;;;;;;;;;;5067324;28;20112;-76
2021/08/24 02:13:50;;;;;;;877.83;771.58;;;;;;;;;;5067198;28;20025;-77
2021/08/24 02:16:20;;;;;;;876.88;763.28;;;;;;;;;;5043920;28;20291;-77
2021/08/24 02:18:49;;;;;;;875.57;761.37;;;;;;;;;;5046481;28;20394;-77
2021/08/24 02:21:22;;;;;;;875.97;758.25;;;;;;;;;;5046708;28;20969;-77
2021/08/24 02:23:49;;;;;;;881.17;766.20;;;;;;;;;;5046547;28;20479;-78
2021/08/24 02:26:16;;;;;;;877.05;765.10;;;;;;;;;;5046552;28;20330;-77
2021/08/24 02:28:50;;;;;;;878.28;766.05;;;;;;;;;;5040949;28;20026;-76
2021/08/24 02:31:21;;;;;;;876.22;756.92;;;;;;;;;;5027446;28;20529;-77
2021/08/24 02:34:00;;;;;;;879.60;765.67;;;;;;;;;;5036159;28;20024;-77
2021/08/24 02:36:26;;;;;;;877.42;758.05;;;;;;;;;;5040615;28;20045;-77
2021/08/24 02:39:04;;;;;;;874.70;762.80;;;;;;;;;;5037050;28;20033;-76
2021/08/24 02:41:34;;;;;;;876.50;752.05;;;;;;;;;;5032914;28;20531;-77
2021/08/24 02:44:05;;;;;;;878.05;756.35;;;;;;;;;;5039501;28;20033;-77
2021/08/24 02:46:33;;;;;;;878.47;756.03;;;;;;;;;;5038740;28;20037;-78
2021/08/24 02:49:07;;;;;;;877.00;759.05;;;;;;;;;;5034535;28;20045;-77
2021/08/24 02:51:33;;;;;;;876.08;756.50;;;;;;;;;;5040864;28;20032;-77
2021/08/24 02:54:14;;;;;;;881.42;764.70;;;;;;;;;;5035320;28;20422;-77
2021/08/24 02:56:40;;;;;;;874.22;754.17;;;;;;;;;;5040107;28;20037;-76
2021/08/24 02:59:06;;;;;;;880.92;761.30;;;;;;;;;;5041565;28;20013;-77
2021/08/24 03:01:32;;;;;;;877.72;763.75;;;;;;;;;;5039445;28;20025;-77
2021/08/24 03:03:58;;;;;;;876.75;762.92;;;;;;;;;;5038256;28;20104;-77
2021/08/24 03:06:24;;;;;;;875.42;759.60;;;;;;;;;;5031029;28;20131;-77
2021/08/24 03:08:51;;;;;;;880.08;761.80;;;;;;;;;;5036297;28;20025;-77
2021/08/24 03:11:21;;;;;;;879.53;764.95;;;;;;;;;;5037498;28;20044;-76
2021/08/24 03:13:55;;;;;;;878.60;764.88;;;;;;;;;;5033016;28;20064;-77
2021/08/24 03:16:51;;;;;;;871.95;751.67;;;;;;;;;;5033186;28;20025;-77
2021/08/24 03:19:23;;;;;;;875.40;745.10;;;;;;;;;;5012264;28;20068;-77
2021/08/24 03:21:50;;;;;;;874.67;749.25;;;;;;;;;;5039721;28;20040;-77
2021/08/24 03:24:17;;;;;;;883.25;758.38;;;;;;;;;;5032278;28;20044;-77
2021/08/24 03:26:44;;;;;;;872.25;749.72;;;;;;;;;;5028603;28;20037;-76
2021/08/24 03:29:12;;;;;;;869.70;745.78;;;;;;;;;;5038723;28;20455;-77
2021/08/24 03:31:39;;;;;;;869.53;742.85;;;;;;;;;;5046436;28;20029;-77
2021/08/24 03:34:06;;;;;;;874.17;750.95;;;;;;;;;;5047366;28;20091;-77
2021/08/24 03:36:32;;;;;;;875.08;745.85;;;;;;;;;;5041584;28;20044;-78
2021/08/24 03:38:58;;;;;;;876.28;746.38;;;;;;;;;;5039777;28;20438;-77
2021/08/24 03:41:25;;;;;;;875.20;746.30;;;;;;;;;;5021923;28;20043;-76
2021/08/24 03:43:51;;;;;;;876.90;746.08;;;;;;;;;;5026422;28;20030;-78
2021/08/24 03:46:17;;;;;;;874.58;740.65;;;;;;;;;;5030223;28;20043;-77
2021/08/24 03:48:43;;;;;;;876.88;747.55;;;;;;;;;;5037728;28;20250;-78
2021/08/24 03:51:08;;;;;;;872.15;735.30;;;;;;;;;;5017243;28;20056;-78
2021/08/24 03:53:35;;;;;;;876.95;737.45;;;;;;;;;;5036797;28;20029;-76
2021/08/24 03:56:01;;;;;;;873.30;739.05;;;;;;;;;;5037056;28;20065;-77
2021/08/24 03:58:27;;;;;;;874.67;739.95;;;;;;;;;;5029018;28;20025;-77
2021/08/24 04:00:53;;;;;;;880.88;748.55;;;;;;;;;;5034106;28;20036;-77
2021/08/24 04:03:19;;;;;;;875.05;741.47;;;;;;;;;;5031388;28;20057;-78
2021/08/24 04:05:45;;;;;;;876.08;741.95;;;;;;;;;;5041915;28;20700;-78
2021/08/24 04:08:11;;;;;;;877.65;743.40;;;;;;;;;;5038753;28;20080;-76
2021/08/24 04:10:38;;;;;;;876.78;738.85;;;;;;;;;;5014966;28;20030;-77
2021/08/24 04:13:04;;;;;;;882.28;751.92;;;;;;;;;;5037570;28;20033;-76
2021/08/24 04:15:30;;;;;;;876.42;742.53;;;;;;;;;;5028547;28;20021;-77
2021/08/24 04:17:56;;;;;;;879.53;751.03;;;;;;;;;;5034290;28;20726;-77
2021/08/24 04:20:22;;;;;;;877.25;742.72;;;;;;;;;;5041802;28;20412;-77
2021/08/24 04:22:49;;;;;;;878.15;743.88;;;;;;;;;;5036366;28;20030;-76
2021/08/24 04:25:31;;;;;;;877.58;740.85;;;;;;;;;;5032388;28;20029;-78
2021/08/24 04:27:57;;;;;;;873.13;733.08;;;;;;;;;;5039708;28;20041;-77
2021/08/24 04:30:23;;;;;;;874.97;741.88;;;;;;;;;;5044321;28;20466;-77
2021/08/24 04:32:49;;;;;;;876.35;735.78;;;;;;;;;;5037156;28;20025;-78
2021/08/24 04:35:16;;;;;;;875.58;735.67;;;;;;;;;;5034442;28;20051;-78
2021/08/24 04:37:42;;;;;;;878.35;738.58;;;;;;;;;;5044389;28;20108;-77
2021/08/24 04:40:08;;;;;;;871.13;732.47;;;;;;;;;;5041236;28;20163;-77
2021/08/24 04:42:35;;;;;;;874.20;735.55;;;;;;;;;;5029657;28;20179;-77
2021/08/24 04:45:01;;;;;;;872.28;737.70;;;;;;;;;;5049650;28;20433;-77
2021/08/24 04:47:27;;;;;;;874.05;734.53;;;;;;;;;;5040450;28;20510;-77
2021/08/24 04:49:53;;;;;;;876.78;741.85;;;;;;;;;;5061278;28;20063;-77
2021/08/24 04:52:19;;;;;;;873.58;737.15;;;;;;;;;;5047468;28;20025;-77
2021/08/24 04:54:45;;;;;;;877.08;742.60;;;;;;;;;;5050589;28;20021;-76
2021/08/24 04:57:11;;;;;;;872.22;735.30;;;;;;;;;;5048965;28;20040;-77
2021/08/24 04:59:37;;;;;;;871.88;734.95;;;;;;;;;;5049163;28;20029;-77
2021/08/24 05:02:03;;;;;;;875.30;744.25;;;;;;;;;;5064193;28;20051;-78
2021/08/24 05:04:29;;;;;;;870.95;734.00;;;;;;;;;;5059674;28;20028;-77
2021/08/24 05:06:55;;;;;;;871.72;731.13;;;;;;;;;;5047537;28;20037;-78
2021/08/24 05:09:21;;;;;;;870.97;735.20;;;;;;;;;;5048434;28;20059;-76
2021/08/24 05:11:47;;;;;;;868.58;735.50;;;;;;;;;;5049522;28;20777;-77
2021/08/24 05:14:13;;;;;;;872.97;740.78;;;;;;;;;;5049114;28;20260;-77
2021/08/24 05:16:40;;;;;;;872.50;734.13;;;;;;;;;;5049268;28;20474;-78
2021/08/24 05:19:08;;;;;;;877.13;743.97;;;;;;;;;;5049303;28;20020;-78
2021/08/24 05:21:35;;;;;;;874.88;745.97;;;;;;;;;;5049506;28;20651;-77
2021/08/24 05:24:01;;;;;;;873.25;740.65;;;;;;;;;;5048092;28;20439;-77
2021/08/24 05:26:27;;;;;;;875.95;743.85;;;;;;;;;;5044976;28;20041;-77
2021/08/24 05:28:53;;;;;;;874.25;744.10;;;;;;;;;;5048391;28;20040;-77
2021/08/24 05:31:19;;;;;;;879.67;746.92;;;;;;;;;;5045887;28;20025;-78
2021/08/24 05:33:45;;;;;;;875.72;744.85;;;;;;;;;;5028801;28;20036;-77
2021/08/24 05:36:12;;;;;;;883.60;750.15;;;;;;;;;;5050192;28;20029;-77
2021/08/24 05:38:39;;;;;;;879.58;751.05;;;;;;;;;;5066395;28;20021;-77
2021/08/24 05:41:05;;;;;;;878.33;753.17;;;;;;;;;;5045691;28;20032;-77
2021/08/24 05:43:31;;;;;;;881.08;765.28;;;;;;;;;;5048368;28;20090;-77
2021/08/24 05:45:58;;;;;;;878.88;752.28;;;;;;;;;;5062163;28;20025;-78
2021/08/24 05:48:26;;;;;;;878.30;750.30;;;;;;;;;;5067315;28;20052;-76
2021/08/24 05:50:51;;;;;;;875.88;759.70;;;;;;;;;;5059838;28;20024;-77
2021/08/24 05:53:17;;;;;;;878.35;763.13;;;;;;;;;;5068014;28;20035;-76
2021/08/24 05:55:43;;;;;;;884.53;775.25;;;;;;;;;;5045996;28;20041;-76
2021/08/24 05:58:09;;;;;;;884.13;778.15;;;;;;;;;;5036565;28;20033;-77
2021/08/24 06:00:36;;;;;;;881.55;771.85;;;;;;;;;;5048260;28;20025;-77
2021/08/24 06:03:02;;;;;;;882.50;774.03;;;;;;;;;;5052012;28;20039;-77
2021/08/24 06:05:28;;;;;;;879.60;774.08;;;;;;;;;;5031358;28;20045;-77
2021/08/24 06:07:54;;;;;;;883.90;783.60;;;;;;;;;;5011797;28;20033;-76
2021/08/24 06:10:20;;;;;;;886.00;786.33;;;;;;;;;;5044453;28;20446;-77
2021/08/24 06:12:46;;;;;;;889.17;790.85;;;;;;;;;;5062188;28;20029;-77
2021/08/24 06:15:14;;;;;;;889.83;790.85;;;;;;;;;;5056225;28;20040;-77
2021/08/24 06:17:41;;;;;;;888.67;790.75;;;;;;;;;;5056747;28;20028;-77
2021/08/24 06:20:08;;;;;;;898.42;799.80;;;;;;;;;;5057127;28;20016;-78
2021/08/24 06:22:34;;;;;;;901.33;802.67;;;;;;;;;;5035600;28;20124;-77
2021/08/24 06:25:00;;;;;;;899.10;800.50;;;;;;;;;;5049416;28;20021;-76
2021/08/24 06:27:26;;;;;;;907.38;808.47;;;;;;;;;;5056433;28;20490;-77
2021/08/24 06:29:52;;;;;;;912.65;813.55;;;;;;;;;;5045563;28;20132;-75
2021/08/24 06:32:24;;;;;;;911.55;812.97;;;;;;;;;;5053469;28;20112;-76
2021/08/24 06:34:50;;;;;;;914.55;815.55;;;;;;;;;;5039517;28;20045;-76
2021/08/24 06:37:16;;;;;;;923.72;824.45;;;;;;;;;;5039612;28;20126;-76
2021/08/24 06:39:42;;;;;;;924.25;825.05;;;;;;;;;;5039121;28;20052;-76
2021/08/24 06:42:08;;;;;;;924.15;825.13;;;;;;;;;;5041772;28;20024;-78
2021/08/24 06:44:34;;;;;;;932.03;832.55;;;;;;;;;;5046995;28;20032;-77
2021/08/24 06:47:00;;;;;;;937.70;838.22;;;;;;;;;;5043637;28;20032;-77
2021/08/24 06:49:26;;;;;;;935.83;836.63;;;;;;;;;;5044369;28;20567;-80
2021/08/24 06:51:52;;;;;;;934.33;835.20;;;;;;;;;;5043019;28;20026;-77
2021/08/24 06:54:18;;;;;;;941.15;841.42;;;;;;;;;;5024092;28;20032;-78
2021/08/24 06:56:44;;;;;;;946.05;846.15;;;;;;;;;;5042471;28;20610;-77
2021/08/24 06:59:10;;;;;;;954.38;854.55;;;;;;;;;;5040266;28;20680;-79
2021/08/24 07:01:36;;;;;;;963.30;862.97;;;;;;;;;;5042355;28;20025;-77
2021/08/24 07:04:03;;;;;;;966.67;866.22;;;;;;;;;;5034037;28;20542;-79
2021/08/24 07:06:29;;;;;;;967.22;866.58;;;;;;;;;;5032607;28;20042;-78
2021/08/24 07:08:56;;;;;;;970.30;869.53;;;;;;;;;;5042972;28;20044;-78
2021/08/24 07:11:26;;;;;;;980.88;879.92;;;;;;;;;;5017468;28;20200;-80
2021/08/24 07:13:52;;;;;;;972.45;871.95;;;;;;;;;;5010791;28;20018;-78
2021/08/24 07:16:18;;;;;;;977.83;876.90;;;;;;;;;;5018382;28;20041;-78
2021/08/24 07:18:44;;;;;;;980.88;879.95;;;;;;;;;;5029556;28;20036;-78
2021/08/24 07:21:13;;;;;;;994.40;892.70;;;;;;;;;;5028886;28;20031;-78
2021/08/24 07:23:39;;;;;;;984.30;883.67;;;;;;;;;;5029703;28;20021;-78
2021/08/24 07:26:05;;;;;;;994.38;892.85;;;;;;;;;;5028546;28;20291;-78
2021/08/24 07:28:31;;;;;;;993.63;892.67;;;;;;;;;;5045592;28;20108;-78
2021/08/24 07:30:57;;;;;;;987.83;887.20;;;;;;;;;;5044095;28;20487;-79
2021/08/24 07:33:24;;;;;;;993.17;892.42;;;;;;;;;;5043638;28;20237;-78
2021/08/24 07:35:50;;;;;;;992.75;892.15;;;;;;;;;;5044786;28;20336;-77
2021/08/24 07:38:17;;;;;;;1005.60;904.17;;;;;;;;;;5045773;28;20098;-77
2021/08/24 07:40:43;;;;;;;1016.95;914.90;;;;;;;;;;5042172;28;20063;-77
2021/08/24 07:43:09;;;;;;;1006.30;905.00;;;;;;;;;;5038126;28;20016;-77
2021/08/24 07:45:35;;;;;;;1004.22;903.22;;;;;;;;;;5043540;28;20060;-77
2021/08/24 07:48:01;;;;;;;1009.60;908.30;;;;;;;;;;5045727;28;20478;-77
2021/08/24 07:50:27;;;;;;;1010.33;909.13;;;;;;;;;;5043907;28;20021;-78
2021/08/24 07:52:53;;;;;;;1020.30;918.28;;;;;;;;;;5026473;28;20578;-77
2021/08/24 07:55:20;;;;;;;1018.83;916.58;;;;;;;;;;5046203;28;20033;-77
2021/08/24 07:57:45;;;;;;;1018.50;916.65;;;;;;;;;;5032591;28;20428;-77
2021/08/24 08:00:12;;;;;;;1023.92;921.75;;;;;;;;;;5040645;28;20029;-77
2021/08/24 08:02:38;;;;;;;1026.45;923.63;;;;;;;;;;5039944;28;20049;-78
2021/08/24 08:05:04;;;;;;;1025.43;923.22;;;;;;;;;;5020523;28;20065;-77
2021/08/24 08:07:30;;;;;;;1036.97;934.47;;;;;;;;;;5043981;28;20041;-77
2021/08/24 08:09:56;;;;;;;1041.93;939.00;;;;;;;;;;5029278;28;20025;-77
2021/08/24 08:12:22;;;;;;;1040.78;938.40;;;;;;;;;;5032745;28;20049;-76
2021/08/24 08:14:48;;;;;;;1047.13;944.13;;;;;;;;;;5034673;28;20116;-77
2021/08/24 08:17:14;;;;;;;1056.93;953.78;;;;;;;;;;5038456;28;20141;-78
2021/08/24 08:19:40;;;;;;;1062.72;958.92;;;;;;;;;;5043546;28;20087;-78
2021/08/24 08:22:07;;;;;;;1065.72;962.22;;;;;;;;;;5048231;28;20021;-77
2021/08/24 08:24:34;;;;;;;1075.88;970.97;;;;;;;;;;5044339;28;20017;-77
2021/08/24 08:27:00;;;;;;;1070.97;967.13;;;;;;;;;;5045712;28;20126;-77
2021/08/24 08:29:25;;;;;;;1075.38;971.20;;;;;;;;;;5041464;28;20100;-76
2021/08/24 08:31:51;;;;;;;1085.55;980.70;;;;;;;;;;5048422;28;20116;-77
2021/08/24 08:34:18;;;;;;;1089.55;984.40;;;;;;;;;;5036354;28;20017;-77
2021/08/24 08:36:45;;;;;;;1093.32;988.40;;;;;;;;;;5033409;28;20616;-78
2021/08/24 08:39:12;;;;;;;1106.38;997.83;;;;;;;;;;5036638;28;20025;-76
2021/08/24 08:41:38;;;;;;;1111.57;999.70;;;;;;;;;;5035029;28;20060;-77
2021/08/24 08:44:04;;;;;;;1106.38;998.45;;;;;;;;;;5024268;28;20045;-78
2021/08/24 08:46:39;;;;;;;1113.20;999.90;;;;;;;;;;5041961;28;20044;-77
2021/08/24 08:49:08;;;;;;;1106.70;998.30;;;;;;;;;;5031937;28;20045;-78
2021/08/24 08:51:53;;;;;;;1110.65;999.25;;;;;;;;;;5036316;28;20045;-77
2021/08/24 08:54:31;;;;;;;1116.50;999.90;;;;;;;;;;5029394;28;20024;-78
2021/08/24 08:57:01;;;;;;;1115.78;999.90;;;;;;;;;;5040316;28;20029;-77
2021/08/24 08:59:45;;;;;;;1121.95;999.90;;;;;;;;;;5035591;28;20037;-77
2021/08/24 09:02:26;;;;;;;1126.50;999.90;;;;;;;;;;5025544;28;20025;-78
2021/08/24 09:04:53;;;;;;;1125.30;999.90;;;;;;;;;;5027827;28;20021;-77
2021/08/24 09:07:31;;;;;;;1126.45;999.90;;;;;;;;;;5033227;28;20091;-77
2021/08/24 09:09:57;;;;;;;1128.90;999.90;;;;;;;;;;5022090;28;20073;-78
2021/08/24 09:12:24;;;;;;;1131.40;999.90;;;;;;;;;;5047358;28;20029;-79
2021/08/24 09:14:53;;;;;;;1140.75;999.90;;;;;;;;;;5054681;28;20029;-78
2021/08/24 09:17:32;;;;;;;1139.57;999.90;;;;;;;;;;5031273;28;20083;-78
2021/08/24 09:20:13;;;;;;;1139.25;999.90;;;;;;;;;;5037942;28;20018;-77
2021/08/24 09:22:43;;;;;;;1145.47;999.90;;;;;;;;;;5034468;28;20040;-78
2021/08/24 09:25:13;;;;;;;1158.47;999.90;;;;;;;;;;5038227;28;20056;-77
2021/08/24 09:27:45;;;;;;;1157.00;999.90;;;;;;;;;;5032344;28;20433;-78
2021/08/24 09:30:12;;;;;;;1156.75;999.90;;;;;;;;;;5039851;28;20055;-77
2021/08/24 09:32:38;;;;;;;1166.40;999.90;;;;;;;;;;5042380;28;20040;-79
2021/08/24 09:35:07;;;;;;;1162.97;999.90;;;;;;;;;;5034760;28;20578;-76
2021/08/24 09:37:35;;;;;;;1157.53;999.90;;;;;;;;;;5043414;28;20025;-73
2021/08/24 09:40:03;;;;;;;1167.32;999.90;;;;;;;;;;5042219;28;20455;-72
2021/08/24 09:42:32;;;;;;;1162.25;999.90;;;;;;;;;;5041569;28;20021;-72
2021/08/24 09:45:00;;;;;;;1153.63;999.90;;;;;;;;;;5045467;28;20027;-73
2021/08/24 09:47:26;;;;;;;1152.30;999.90;;;;;;;;;;5036751;28;20049;-74
2021/08/24 09:49:59;;;;;;;1160.40;999.90;;;;;;;;;;5037256;28;20052;-80
2021/08/24 09:52:26;;;;;;;1148.07;999.90;;;;;;;;;;5022261;28;20633;-78
2021/08/24 09:54:54;;;;;;;1152.88;999.90;;;;;;;;;;5060333;28;20022;-77
2021/08/24 09:57:24;;;;;;;1147.30;999.90;;;;;;;;;;5046046;28;20036;-77
2021/08/24 09:59:56;;;;;;;1144.47;999.90;;;;;;;;;;5047471;28;20025;-77
2021/08/24 10:02:49;;;;;;;1144.40;999.90;;;;;;;;;;5048212;28;20033;-78
2021/08/24 10:05:32;;;;;;;1134.50;999.90;;;;;;;;;;5021753;28;20222;-79
2021/08/24 10:07:58;;;;;;;1138.82;999.90;;;;;;;;;;5030531;28;20039;-79
2021/08/24 10:10:38;;;;;;;1142.35;999.90;;;;;;;;;;5044148;28;20032;-79
2021/08/24 10:13:26;;;;;;;1126.40;999.90;;;;;;;;;;5044057;28;20455;-78
2021/08/24 10:16:02;;;;;;;1125.15;999.90;;;;;;;;;;5036950;28;20033;-77
2021/08/24 10:18:30;;;;;;;1115.80;999.90;;;;;;;;;;5039512;28;20643;-79
2021/08/24 10:21:14;;;;;;;1125.88;999.90;;;;;;;;;;5034092;28;20049;-78
2021/08/24 10:23:49;;;;;;;1112.68;999.90;;;;;;;;;;5047002;28;20033;-78
2021/08/24 10:26:22;;;;;;;1129.75;999.90;;;;;;;;;;5046442;28;20033;-78
2021/08/24 10:28:54;;;;;;;1132.53;999.90;;;;;;;;;;5027232;28;20089;-77
2021/08/24 10:31:41;;;;;;;1144.95;999.90;;;;;;;;;;5031832;28;20136;-78
2021/08/24 10:34:13;;;;;;;1144.47;999.90;;;;;;;;;;5020657;28;20036;-78
2021/08/24 10:36:43;;;;;;;1150.32;999.90;;;;;;;;;;5013703;28;20231;-77
2021/08/24 10:39:31;;;;;;;1144.68;999.90;;;;;;;;;;5023702;28;20044;-78
2021/08/24 10:42:03;;;;;;;1137.70;999.90;;;;;;;;;;5017216;28;20025;-78
2021/08/24 10:44:31;;;;;;;1133.75;999.90;;;;;;;;;;5046652;28;20029;-78
2021/08/24 10:47:00;;;;;;;1140.10;999.90;;;;;;;;;;5046920;28;20037;-77
2021/08/24 10:49:27;;;;;;;1154.30;999.90;;;;;;;;;;5033026;28;21802;-79
2021/08/24 10:52:05;;;;;;;1176.43;999.90;;;;;;;;;;5021677;28;20021;-77
2021/08/24 10:54:49;;;;;;;1199.20;999.90;;;;;;;;;;5024903;28;20029;-78
2021/08/24 10:57:36;;;;;;;1200.38;999.90;;;;;;;;;;5025450;28;20033;-77
2021/08/24 11:00:02;;;;;;;1195.10;999.90;;;;;;;;;;5047230;28;20051;-79
2021/08/24 11:02:43;;;;;;;1193.65;999.90;;;;;;;;;;5026516;28;20025;-78
2021/08/24 11:05:35;;;;;;;1181.32;999.90;;;;;;;;;;5026458;28;20039;-78
2021/08/24 11:08:10;;;;;;;1176.93;999.90;;;;;;;;;;5041568;28;20127;-79
2021/08/24 11:10:41;;;;;;;1177.47;999.90;;;;;;;;;;5040588;28;20025;-73
2021/08/24 11:13:12;;;;;;;1180.05;999.90;;;;;;;;;;5026138;28;20443;-79
2021/08/24 11:15:38;;;;;;;1184.00;999.90;;;;;;;;;;5043572;28;20029;-79
2021/08/24 11:18:25;;;;;;;1180.63;999.90;;;;;;;;;;5050396;28;20367;-79
2021/08/24 11:21:00;;;;;;;1178.55;999.90;;;;;;;;;;5014259;28;20292;-79
2021/08/24 11:23:44;;;;;;;1168.72;999.90;;;;;;;;;;5027133;28;20026;-79
2021/08/24 11:26:20;;;;;;;1169.70;999.90;;;;;;;;;;5026090;28;20033;-80
2021/08/24 11:28:53;;;;;;;1168.38;999.90;;;;;;;;;;5026405;28;20053;-80
2021/08/24 11:31:26;;;;;;;1158.63;999.90;;;;;;;;;;5026542;28;20017;-79
2021/08/24 11:33:57;;;;;;;1155.28;999.90;;;;;;;;;;5027521;28;20080;-79
2021/08/24 11:36:23;;;;;;;;;;;;;;;;;;5032827;28;20454;-81
2021/08/24 11:38:56;;;;;;;1135.85;999.90;;;;;;;;;;5033258;28;19908;-79
2021/08/24 11:41:24;;;;;;;1152.07;999.90;;;;;;;;;;5033642;28;20040;-79
2021/08/24 11:43:53;;;;;;;1164.30;999.90;;;;;;;;;;5033746;28;20486;-79
2021/08/24 11:46:26;;;;;;;1171.60;999.90;;;;;;;;;;5033569;28;20398;-80
2021/08/24 11:48:59;;;;;;;1191.38;999.90;;;;;;;;;;5032890;28;20045;-80
2021/08/24 11:51:27;;;;;;;1208.90;999.90;;;;;;;;;;5034010;28;20029;-79
2021/08/24 11:54:10;;;;;;;1211.93;999.90;;;;;;;;;;5033595;28;20021;-79
2021/08/24 11:56:41;;;;;;;1215.55;999.90;;;;;;;;;;5038893;28;20025;-79
2021/08/24 11:59:15;;;;;;;1199.28;999.90;;;;;;;;;;5032453;28;20443;-78
2021/08/24 12:01:44;;;;;;;1193.55;999.90;;;;;;;;;;5029846;28;20047;-79
2021/08/24 12:04:11;;;;;;;1187.47;999.90;;;;;;;;;;5047404;28;20013;-79
2021/08/24 12:06:41;;;;;;;1195.15;999.90;;;;;;;;;;5049139;28;20099;-79
2021/08/24 12:09:08;;;;;;;1200.75;999.90;;;;;;;;;;5047054;28;20041;-78
2021/08/24 12:11:43;;;;;;;1216.90;999.90;;;;;;;;;;5064866;28;20043;-80
2021/08/24 12:14:17;;;;;;;1216.43;999.90;;;;;;;;;;5049345;28;20511;-80
2021/08/24 12:16:53;;;;;;;1212.22;999.90;;;;;;;;;;5050094;28;20037;-79
2021/08/24 12:19:21;;;;;;;1214.53;999.90;;;;;;;;;;5067157;28;20032;-78
2021/08/24 12:21:50;;;;;;;1230.43;999.90;;;;;;;;;;5055600;28;20031;-78
2021/08/24 12:24:26;;;;;;;1230.25;999.90;;;;;;;;;;5013346;28;20424;-79
2021/08/24 12:26:55;;;;;;;1233.68;999.90;;;;;;;;;;5012815;28;20536;-78
2021/08/24 12:29:34;;;;;;;1240.40;999.90;;;;;;;;;;5021035;28;20033;-79
2021/08/24 12:32:02;;;;;;;1259.20;999.90;;;;;;;;;;5029815;28;20018;-79
2021/08/24 12:34:31;;;;;;;1277.18;999.90;;;;;;;;;;5029536;28;20207;-80
2021/08/24 12:36:57;;;;;;;1281.63;999.90;;;;;;;;;;5035366;28;20619;-79
2021/08/24 12:39:32;;;;;;;1266.20;999.90;;;;;;;;;;5032237;28;20124;-78
2021/08/24 12:42:13;;;;;;;1255.25;999.90;;;;;;;;;;5066454;28;20067;-80
2021/08/24 12:44:47;;;;;;;1246.05;999.90;;;;;;;;;;5066020;28;20025;-78
2021/08/24 12:47:18;;;;;;;1237.65;999.90;;;;;;;;;;5028773;28;20529;-79
2021/08/24 12:49:44;;;;;;;1237.55;999.90;;;;;;;;;;5030682;28;20123;-78
2021/08/24 12:52:19;;;;;;;1235.25;999.90;;;;;;;;;;5006522;28;20030;-78
2021/08/24 12:54:49;;;;;;;1229.85;999.90;;;;;;;;;;5001992;28;20637;-78
2021/08/24 12:57:15;;;;;;;;;;;;;;;;;;5027202;28;20060;-74
2021/08/24 12:59:52;;;;;;;1215.20;999.90;;;;;;;;;;5032532;28;20351;-74
2021/08/24 13:02:18;;;;;;;1221.90;999.90;;;;;;;;;;5009838;28;20045;-79
2021/08/24 13:04:54;;;;;;;1228.63;999.90;;;;;;;;;;5012544;28;20030;-80
2021/08/24 13:07:34;;;;;;;1210.88;999.90;;;;;;;;;;5029211;28;20065;-79
2021/08/24 13:10:19;;;;;;;1212.15;999.90;;;;;;;;;;5011167;28;20040;-79
2021/08/24 13:12:45;;;;;;;1208.10;999.90;;;;;;;;;;5007708;28;20025;-79
2021/08/24 13:15:42;;;;;;;1197.78;999.90;;;;;;;;;;5001494;28;20120;-80
2021/08/24 13:18:11;;;;;;;1201.35;999.90;;;;;;;;;;5020619;28;20034;-80
2021/08/24 13:20:39;;;;;;;1203.68;999.90;;;;;;;;;;5027441;28;20026;-80
2021/08/24 13:23:11;;;;;;;1204.00;999.90;;;;;;;;;;5011613;28;20109;-79
2021/08/24 13:25:51;;;;;;;1203.25;999.90;;;;;;;;;;5012483;28;20072;-79
2021/08/24 13:28:17;;;;;;;;;;;;;;;;;;5013358;28;20051;-77
2021/08/24 13:30:48;;;;;;;1194.22;999.90;;;;;;;;;;5025892;28;19931;-78
2021/08/24 13:33:18;;;;;;;1214.80;999.90;;;;;;;;;;5028306;28;20037;-79
2021/08/24 13:36:11;;;;;;;1246.55;999.90;;;;;;;;;;5025560;28;20057;-78
2021/08/24 13:38:44;;;;;;;1289.85;999.90;;;;;;;;;;5000918;28;20402;-79
2021/08/24 13:41:10;;;;;;;1320.35;999.90;;;;;;;;;;4992923;28;20056;-79
2021/08/24 13:43:42;;;;;;;1347.20;999.90;;;;;;;;;;5013064;28;20445;-77
2021/08/24 13:46:10;;;;;;;1376.03;999.90;;;;;;;;;;5009020;28;20056;-77
2021/08/24 13:48:37;;;;;;;1316.00;999.90;;;;;;;;;;5036647;28;20120;-77
2021/08/24 13:51:06;;;;;;;1329.72;999.90;;;;;;;;;;5047972;28;20018;-78
2021/08/24 13:53:35;;;;;;;1429.32;999.90;;;;;;;;;;5047701;28;20021;-79
2021/08/24 13:56:03;;;;;;;1436.57;999.90;;;;;;;;;;5048180;28;20028;-77
2021/08/24 13:58:30;;;;;;;1450.22;999.90;;;;;;;;;;5048736;28;20104;-78
2021/08/24 14:01:03;;;;;;;1454.68;999.90;;;;;;;;;;5034330;28;20092;-78
2021/08/24 14:03:29;;;;;;;1449.95;999.90;;;;;;;;;;5027562;28;20024;-78